Time;durP1;ratioP1;P1;durP2;ratioP2;P2;SDS_P1;SDS_P2;PMS_P1;PMS_P2;Temp;Humidity;BMP_temperature;BMP_pressure;BME280_temperature;BME280_humidity;BME280_pressure;Samples;Min_cycle;Max_cycle;Signal;HPM_P1;HPM_P2
2023/05/02 00:22:56;;;;;;;0.30;0.30;;;;;;;;;;7389148;19;20172;-89
2023/05/02 00:25:22;;;;;;;1.03;0.97;;;;;;;;;;7388910;19;20172;-89
2023/05/02 00:27:49;;;;;;;0.30;0.30;;;;;;;;;;7393844;19;20147;-89
2023/05/02 00:30:17;;;;;;;0.30;0.30;;;;;;;;;;7394926;19;20136;-89
2023/05/02 00:32:44;;;;;;;0.40;0.40;;;;;;;;;;7393252;19;20147;-90
2023/05/02 00:35:13;;;;;;;0.60;0.60;;;;;;;;;;7396135;19;20164;-89
2023/05/02 00:37:40;;;;;;;0.47;0.47;;;;;;;;;;7404394;19;20160;-89
2023/05/02 00:40:07;;;;;;;0.30;0.30;;;;;;;;;;7405725;19;20160;-89
2023/05/02 00:42:35;;;;;;;0.40;0.40;;;;;;;;;;7399955;19;20217;-89
2023/05/02 00:45:05;;;;;;;0.30;0.30;;;;;;;;;;7394629;19;20163;-87
2023/05/02 00:47:32;;;;;;;0.40;0.40;;;;;;;;;;7394748;19;20157;-88
2023/05/02 00:50:00;;;;;;;0.40;0.40;;;;;;;;;;7397767;19;20132;-90
2023/05/02 00:52:27;;;;;;;0.30;0.30;;;;;;;;;;7395383;19;20712;-89
2023/05/02 00:54:54;;;;;;;0.30;0.30;;;;;;;;;;7393186;19;20159;-88
2023/05/02 00:57:21;;;;;;;0.30;0.30;;;;;;;;;;7394524;19;20157;-89
2023/05/02 00:59:48;;;;;;;0.30;0.30;;;;;;;;;;7395684;19;20132;-89
2023/05/02 01:02:26;;;;;;;0.30;0.30;;;;;;;;;;7392089;19;20133;-90
2023/05/02 01:05:10;;;;;;;0.30;0.30;;;;;;;;;;7393386;19;20179;-90
2023/05/02 01:08:01;;;;;;;0.40;0.40;;;;;;;;;;7393950;19;20164;-90
2023/05/02 01:10:56;;;;;;;0.30;0.30;;;;;;;;;;7390441;19;20165;-89
2023/05/02 01:13:28;;;;;;;0.60;0.60;;;;;;;;;;7394322;19;20144;-89
2023/05/02 01:15:57;;;;;;;0.30;0.30;;;;;;;;;;7390722;19;20238;-88
2023/05/02 01:18:25;;;;;;;0.30;0.30;;;;;;;;;;7391372;19;20137;-89
2023/05/02 01:20:58;;;;;;;0.30;0.30;;;;;;;;;;7390633;19;20209;-90
2023/05/02 01:23:31;;;;;;;0.30;0.30;;;;;;;;;;7393467;19;20133;-89
2023/05/02 01:26:14;;;;;;;0.30;0.30;;;;;;;;;;7390835;19;20149;-89
2023/05/02 01:28:56;;;;;;;0.63;0.63;;;;;;;;;;7388399;19;20154;-89
2023/05/02 01:31:26;;;;;;;0.67;0.67;;;;;;;;;;7397398;19;20121;-90
2023/05/02 01:33:53;;;;;;;0.40;0.40;;;;;;;;;;7399753;19;20145;-89
2023/05/02 01:36:22;;;;;;;0.40;0.40;;;;;;;;;;7395610;19;20168;-89
2023/05/02 01:38:49;;;;;;;0.40;0.40;;;;;;;;;;7398453;19;20165;-89
2023/05/02 01:41:16;;;;;;;0.30;0.30;;;;;;;;;;7399287;19;20133;-89
2023/05/02 01:43:43;;;;;;;0.57;0.57;;;;;;;;;;7399413;19;20165;-88
2023/05/02 01:46:12;;;;;;;0.40;0.40;;;;;;;;;;7396810;19;20172;-89
2023/05/02 01:48:41;;;;;;;0.27;0.27;;;;;;;;;;7397083;19;20188;-89
2023/05/02 01:51:08;;;;;;;0.30;0.30;;;;;;;;;;7399408;19;20129;-90
2023/05/02 01:53:35;;;;;;;0.30;0.30;;;;;;;;;;7398661;19;20141;-89
2023/05/02 01:56:02;;;;;;;0.40;0.40;;;;;;;;;;7393989;19;20527;-89
2023/05/02 01:58:29;;;;;;;0.40;0.40;;;;;;;;;;7398160;19;20416;-89
2023/05/02 02:00:58;;;;;;;0.43;0.43;;;;;;;;;;7398213;19;20133;-89
2023/05/02 02:03:27;;;;;;;0.40;0.40;;;;;;;;;;7395654;19;20149;-89
2023/05/02 02:05:55;;;;;;;0.30;0.30;;;;;;;;;;7397030;19;20208;-90
2023/05/02 02:08:22;;;;;;;0.30;0.30;;;;;;;;;;7395907;19;20156;-90
2023/05/02 02:10:53;;;;;;;0.30;0.30;;;;;;;;;;7397326;19;20166;-88
2023/05/02 02:13:26;;;;;;;0.33;0.33;;;;;;;;;;7395151;19;20133;-91
2023/05/02 02:15:58;;;;;;;0.20;0.20;;;;;;;;;;7394997;19;20180;-90
2023/05/02 02:18:25;;;;;;;0.20;0.20;;;;;;;;;;7395585;19;20145;-89
2023/05/02 02:20:52;;;;;;;0.20;0.20;;;;;;;;;;7392803;19;20141;-89
2023/05/02 02:23:21;;;;;;;0.30;0.30;;;;;;;;;;7398467;19;20165;-89
2023/05/02 02:25:49;;;;;;;0.30;0.30;;;;;;;;;;7419926;19;20169;-90
2023/05/02 02:28:16;;;;;;;0.30;0.30;;;;;;;;;;7407436;19;20145;-90
2023/05/02 02:30:42;;;;;;;0.30;0.30;;;;;;;;;;7396682;19;20605;-88
2023/05/02 02:33:09;;;;;;;0.30;0.30;;;;;;;;;;7393352;19;20351;-90
2023/05/02 02:35:48;;;;;;;0.20;0.20;;;;;;;;;;7395201;19;20183;-89
2023/05/02 02:38:21;;;;;;;0.30;0.30;;;;;;;;;;7397625;19;20133;-90
2023/05/02 02:41:10;;;;;;;0.30;0.30;;;;;;;;;;7393116;19;20149;-90
2023/05/02 02:43:44;;;;;;;0.40;0.40;;;;;;;;;;7397319;19;20121;-90
2023/05/02 02:46:23;;;;;;;0.40;0.40;;;;;;;;;;7393461;19;20173;-90
2023/05/02 02:49:14;;;;;;;1.40;0.70;;;;;;;;;;7394658;19;20137;-88
2023/05/02 02:51:49;;;;;;;0.33;0.33;;;;;;;;;;7396149;19;20144;-89
2023/05/02 02:54:34;;;;;;;0.40;0.40;;;;;;;;;;7395389;19;20646;-90
2023/05/02 02:57:09;;;;;;;0.30;0.30;;;;;;;;;;7393588;19;20146;-89
2023/05/02 02:59:40;;;;;;;0.30;0.30;;;;;;;;;;7396715;19;20167;-89
2023/05/02 03:02:08;;;;;;;0.30;0.30;;;;;;;;;;7395039;19;20125;-89
2023/05/02 03:04:41;;;;;;;0.30;0.30;;;;;;;;;;7393257;19;20165;-90
2023/05/02 03:07:08;;;;;;;0.50;0.50;;;;;;;;;;7397621;19;20141;-89
2023/05/02 03:09:41;;;;;;;0.30;0.30;;;;;;;;;;7396867;19;20160;-89
2023/05/02 03:12:08;;;;;;;0.63;0.63;;;;;;;;;;7397184;19;20650;-90
2023/05/02 03:14:35;;;;;;;0.40;0.40;;;;;;;;;;7396794;19;20153;-89
2023/05/02 03:17:03;;;;;;;0.43;0.43;;;;;;;;;;7394950;19;20533;-89
2023/05/02 03:19:29;;;;;;;0.30;0.30;;;;;;;;;;7397259;19;20136;-90
2023/05/02 03:21:56;;;;;;;0.30;0.30;;;;;;;;;;7397109;19;20125;-90
2023/05/02 03:24:22;;;;;;;0.30;0.30;;;;;;;;;;7396425;19;20141;-89
2023/05/02 03:26:53;;;;;;;0.30;0.30;;;;;;;;;;7397024;19;20169;-90
2023/05/02 03:29:20;;;;;;;11.23;0.63;;;;;;;;;;7397119;19;20185;-90
2023/05/02 03:31:46;;;;;;;0.40;0.40;;;;;;;;;;7394987;19;20136;-88
2023/05/02 03:34:13;;;;;;;0.30;0.30;;;;;;;;;;7394395;19;20607;-89
2023/05/02 03:36:40;;;;;;;0.30;0.30;;;;;;;;;;7392089;19;20777;-89
2023/05/02 03:39:06;;;;;;;0.23;0.23;;;;;;;;;;7389673;19;20626;-89
2023/05/02 03:41:33;;;;;;;0.53;0.53;;;;;;;;;;7395417;19;20502;-90
2023/05/02 03:43:59;;;;;;;0.90;0.73;;;;;;;;;;7392547;19;20145;-89
2023/05/02 03:46:26;;;;;;;0.30;0.30;;;;;;;;;;7393199;19;20649;-89
2023/05/02 03:48:52;;;;;;;0.37;0.37;;;;;;;;;;7392912;19;20137;-90
2023/05/02 03:51:19;;;;;;;0.50;0.50;;;;;;;;;;7393406;19;20129;-89
2023/05/02 03:53:46;;;;;;;0.40;0.40;;;;;;;;;;7395327;19;20153;-89
2023/05/02 03:56:18;;;;;;;0.20;0.20;;;;;;;;;;7393081;19;20196;-89
2023/05/02 03:58:46;;;;;;;0.43;0.43;;;;;;;;;;7395459;19;20565;-90
2023/05/02 04:01:14;;;;;;;1.13;1.03;;;;;;;;;;7395200;19;20141;-89
2023/05/02 04:03:41;;;;;;;0.40;0.40;;;;;;;;;;7396091;19;20265;-89
2023/05/02 04:06:09;;;;;;;0.47;0.47;;;;;;;;;;7394858;19;20156;-88
2023/05/02 04:08:35;;;;;;;0.37;0.37;;;;;;;;;;7397387;19;20587;-88
2023/05/02 04:11:02;;;;;;;0.20;0.20;;;;;;;;;;7396308;19;20128;-91
2023/05/02 04:13:29;;;;;;;0.30;0.30;;;;;;;;;;7397223;19;20156;-90
2023/05/02 04:15:56;;;;;;;0.50;0.50;;;;;;;;;;7398634;19;20636;-89
2023/05/02 04:18:22;;;;;;;0.30;0.30;;;;;;;;;;7395678;19;20560;-89
2023/05/02 04:20:49;;;;;;;0.40;0.40;;;;;;;;;;7394451;19;20129;-89
2023/05/02 04:23:16;;;;;;;0.30;0.30;;;;;;;;;;7395928;19;20129;-89
2023/05/02 04:25:53;;;;;;;0.40;0.40;;;;;;;;;;7391957;19;20626;-89
2023/05/02 04:28:20;;;;;;;0.60;0.60;;;;;;;;;;7395224;19;20144;-89
2023/05/02 04:30:50;;;;;;;0.60;0.60;;;;;;;;;;7393390;19;20123;-89
2023/05/02 04:33:18;;;;;;;0.30;0.30;;;;;;;;;;7395218;19;20177;-89
2023/05/02 04:35:45;;;;;;;0.30;0.30;;;;;;;;;;7392741;19;20574;-91
2023/05/02 04:38:11;;;;;;;0.30;0.30;;;;;;;;;;7393213;19;20152;-91
2023/05/02 04:40:38;;;;;;;0.47;0.47;;;;;;;;;;7397022;19;20169;-90
2023/05/02 04:43:05;;;;;;;0.40;0.40;;;;;;;;;;7394778;19;20549;-89
2023/05/02 04:45:34;;;;;;;0.40;0.40;;;;;;;;;;7391771;19;20564;-88
2023/05/02 04:48:00;;;;;;;0.30;0.30;;;;;;;;;;7393995;19;20136;-90
2023/05/02 04:50:28;;;;;;;0.40;0.40;;;;;;;;;;7395320;19;20142;-90
2023/05/02 04:52:54;;;;;;;0.43;0.43;;;;;;;;;;7390595;19;20509;-90
2023/05/02 04:55:21;;;;;;;0.30;0.30;;;;;;;;;;7389590;19;20196;-91
2023/05/02 04:57:47;;;;;;;0.50;0.50;;;;;;;;;;7392273;19;20133;-91
2023/05/02 05:00:15;;;;;;;0.40;0.40;;;;;;;;;;7391135;19;20153;-91
2023/05/02 05:02:42;;;;;;;0.30;0.30;;;;;;;;;;7393186;19;20133;-91
2023/05/02 05:05:09;;;;;;;0.30;0.30;;;;;;;;;;7394309;19;20207;-91
2023/05/02 05:07:35;;;;;;;0.40;0.40;;;;;;;;;;7422236;19;20161;-91
2023/05/02 05:10:02;;;;;;;0.30;0.30;;;;;;;;;;7407261;19;20144;-90
2023/05/02 05:12:29;;;;;;;0.30;0.30;;;;;;;;;;7402689;19;20148;-91
2023/05/02 05:14:56;;;;;;;0.40;0.40;;;;;;;;;;7399365;19;20173;-89
2023/05/02 05:17:22;;;;;;;0.87;0.60;;;;;;;;;;7396670;19;20144;-91
2023/05/02 05:19:49;;;;;;;0.40;0.40;;;;;;;;;;7397507;19;20125;-91
2023/05/02 05:22:16;;;;;;;0.40;0.40;;;;;;;;;;7399249;19;20160;-91
2023/05/02 05:24:50;;;;;;;0.40;0.40;;;;;;;;;;7394732;19;20208;-91
2023/05/02 05:27:17;;;;;;;0.30;0.30;;;;;;;;;;7397031;19;20136;-92
2023/05/02 05:29:43;;;;;;;0.37;0.37;;;;;;;;;;7397507;19;20136;-91
2023/05/02 05:32:10;;;;;;;0.30;0.30;;;;;;;;;;7403290;19;20646;-91
2023/05/02 05:34:37;;;;;;;0.43;0.43;;;;;;;;;;7401584;19;20177;-91
2023/05/02 05:37:03;;;;;;;0.30;0.30;;;;;;;;;;7400482;19;20141;-91
2023/05/02 05:39:30;;;;;;;0.30;0.30;;;;;;;;;;7397321;19;20140;-91
2023/05/02 05:41:57;;;;;;;0.77;0.40;;;;;;;;;;7396543;19;20500;-91
2023/05/02 05:44:24;;;;;;;0.40;0.40;;;;;;;;;;7395084;19;20137;-92
2023/05/02 05:46:51;;;;;;;0.50;0.50;;;;;;;;;;7398473;19;20140;-90
2023/05/02 05:49:17;;;;;;;0.50;0.50;;;;;;;;;;7397372;19;20141;-90
2023/05/02 05:51:46;;;;;;;0.40;0.40;;;;;;;;;;7398577;19;20165;-90
2023/05/02 05:54:13;;;;;;;0.43;0.43;;;;;;;;;;7393996;19;20182;-88
2023/05/02 05:56:39;;;;;;;0.40;0.40;;;;;;;;;;7394838;19;20136;-91
2023/05/02 05:59:06;;;;;;;0.50;0.50;;;;;;;;;;7395225;19;20176;-90
2023/05/02 06:01:34;;;;;;;0.50;0.50;;;;;;;;;;7395191;19;20478;-91
2023/05/02 06:04:04;;;;;;;0.57;0.57;;;;;;;;;;7395956;19;20141;-91
2023/05/02 06:06:31;;;;;;;0.40;0.40;;;;;;;;;;7395263;19;20173;-90
2023/05/02 06:08:58;;;;;;;0.43;0.43;;;;;;;;;;7398388;19;20141;-90
2023/05/02 06:11:25;;;;;;;0.47;0.47;;;;;;;;;;7393835;19;20164;-91
2023/05/02 06:13:52;;;;;;;0.20;0.20;;;;;;;;;;7395090;19;20143;-89
2023/05/02 06:16:19;;;;;;;0.47;0.47;;;;;;;;;;7393255;19;20497;-91
2023/05/02 06:18:57;;;;;;;0.50;0.50;;;;;;;;;;7391926;19;20133;-90
2023/05/02 06:21:25;;;;;;;1.93;0.60;;;;;;;;;;7393263;19;20137;-91
2023/05/02 06:24:08;;;;;;;0.33;0.33;;;;;;;;;;7394915;19;20144;-90
2023/05/02 06:26:46;;;;;;;0.50;0.50;;;;;;;;;;7387607;19;20172;-90
2023/05/02 06:29:30;;;;;;;0.40;0.40;;;;;;;;;;7395498;19;20165;-90
2023/05/02 06:32:06;;;;;;;0.33;0.33;;;;;;;;;;7391722;19;20134;-90
2023/05/02 06:34:42;;;;;;;0.50;0.50;;;;;;;;;;7398375;19;20554;-90
2023/05/02 06:37:11;;;;;;;0.50;0.50;;;;;;;;;;7392588;19;20144;-90
2023/05/02 06:39:37;;;;;;;0.40;0.40;;;;;;;;;;7389790;19;20133;-91
2023/05/02 06:42:04;;;;;;;1.00;1.00;;;;;;;;;;7392758;19;20140;-90
2023/05/02 06:44:31;;;;;;;0.30;0.30;;;;;;;;;;7393382;19;20148;-90
2023/05/02 06:46:57;;;;;;;0.40;0.40;;;;;;;;;;7389199;19;20133;-91
2023/05/02 06:49:27;;;;;;;0.53;0.53;;;;;;;;;;7394043;19;20137;-89
2023/05/02 06:54:56;;;;;;;0.50;0.50;;;;;;;;;;7392636;19;20180;-91
2023/05/02 06:57:25;;;;;;;0.40;0.40;;;;;;;;;;7385921;19;20477;-91
2023/05/02 07:00:31;;;;;;;0.30;0.30;;;;;;;;;;7393121;19;20137;-90
2023/05/02 07:03:04;;;;;;;0.30;0.30;;;;;;;;;;7382443;19;20503;-91
2023/05/02 07:05:31;;;;;;;1.60;0.77;;;;;;;;;;7379515;19;20168;-91
2023/05/02 07:07:58;;;;;;;0.50;0.50;;;;;;;;;;7388496;19;20148;-90
2023/05/02 07:10:25;;;;;;;0.53;0.53;;;;;;;;;;7414895;19;20147;-90
2023/05/02 07:12:52;;;;;;;0.47;0.47;;;;;;;;;;7392085;19;20408;-92
2023/05/02 07:15:28;;;;;;;1.07;1.03;;;;;;;;;;7386180;19;20169;-91
2023/05/02 07:18:45;;;;;;;0.40;0.40;;;;;;;;;;7391098;19;20140;-92
2023/05/02 07:21:48;;;;;;;0.40;0.40;;;;;;;;;;7382322;19;20157;-91
2023/05/02 07:24:29;;;;;;;0.70;0.70;;;;;;;;;;7384900;19;20499;-91
2023/05/02 07:42:07;;;;;;;0.43;0.43;;;;;;;;;;7376763;19;20144;-90
2023/05/02 07:46:03;;;;;;;0.60;0.60;;;;;;;;;;7382181;19;20181;-91
2023/05/02 07:48:31;;;;;;;0.43;0.43;;;;;;;;;;7388812;19;20650;-90
2023/05/02 07:51:08;;;;;;;0.67;0.67;;;;;;;;;;7389038;19;20137;-90
2023/05/02 07:53:40;;;;;;;0.40;0.40;;;;;;;;;;7385215;19;20210;-91
2023/05/02 07:56:11;;;;;;;0.43;0.43;;;;;;;;;;7388393;19;20186;-89
2023/05/02 07:58:38;;;;;;;0.40;0.40;;;;;;;;;;7384753;19;20137;-90
2023/05/02 08:01:05;;;;;;;1.13;1.07;;;;;;;;;;7387948;19;20133;-89
2023/05/02 08:03:31;;;;;;;0.33;0.33;;;;;;;;;;7391529;19;20137;-88
2023/05/02 08:06:00;;;;;;;0.60;0.60;;;;;;;;;;7392130;19;20189;-90
2023/05/02 08:08:27;;;;;;;0.30;0.30;;;;;;;;;;7395163;19;20233;-89
2023/05/02 08:10:54;;;;;;;1.43;0.70;;;;;;;;;;7391729;19;20153;-90
2023/05/02 08:13:21;;;;;;;0.30;0.30;;;;;;;;;;7393278;19;20144;-89
2023/05/02 08:15:47;;;;;;;0.80;0.80;;;;;;;;;;7394125;19;20175;-90
2023/05/02 08:18:14;;;;;;;0.50;0.50;;;;;;;;;;7395860;19;20145;-90
2023/05/02 08:20:42;;;;;;;0.50;0.50;;;;;;;;;;7392048;19;20155;-89
2023/05/02 08:23:09;;;;;;;0.77;0.73;;;;;;;;;;7387427;19;20204;-90
2023/05/02 08:25:36;;;;;;;0.93;0.93;;;;;;;;;;7390578;19;20167;-90
2023/05/02 08:28:03;;;;;;;0.47;0.47;;;;;;;;;;7389367;19;20153;-90
2023/05/02 08:30:30;;;;;;;0.73;0.73;;;;;;;;;;7389571;19;20133;-90
2023/05/02 08:32:57;;;;;;;0.90;0.90;;;;;;;;;;7393614;19;20147;-90
2023/05/02 08:35:28;;;;;;;0.77;0.77;;;;;;;;;;7386290;19;20235;-91
2023/05/02 08:37:56;;;;;;;0.63;0.63;;;;;;;;;;7386572;19;20137;-88
2023/05/02 08:41:02;;;;;;;0.50;0.50;;;;;;;;;;7390120;19;20145;-90
2023/05/02 08:44:05;;;;;;;1.10;1.07;;;;;;;;;;7394948;19;20148;-90
2023/05/02 08:46:45;;;;;;;0.60;0.60;;;;;;;;;;7412690;19;20168;-87
2023/05/02 08:49:16;;;;;;;1.05;1.00;;;;;;;;;;7427754;19;20140;-89
2023/05/02 08:51:44;;;;;;;0.98;0.98;;;;;;;;;;7426063;19;20140;-90
2023/05/02 08:54:15;;;;;;;0.73;0.73;;;;;;;;;;7422429;19;20182;-90
2023/05/02 21:55:19;;;;;;;0.37;0.37;;;;;;;;;;7408894;19;20210;-89
2023/05/02 21:57:46;;;;;;;0.30;0.30;;;;;;;;;;7399815;19;20548;-90
2023/05/02 22:00:13;;;;;;;0.80;0.80;;;;;;;;;;7402174;19;20140;-90
2023/05/02 22:02:45;;;;;;;0.37;0.37;;;;;;;;;;7399766;19;20626;-89
2023/05/02 22:05:12;;;;;;;0.63;0.63;;;;;;;;;;7395064;19;20180;-88
2023/05/02 22:07:39;;;;;;;0.50;0.50;;;;;;;;;;7399330;19;20152;-90
2023/05/02 22:10:07;;;;;;;0.50;0.50;;;;;;;;;;7397752;19;20141;-90
2023/05/02 22:12:33;;;;;;;0.40;0.40;;;;;;;;;;7396157;19;20513;-91
2023/05/02 22:15:00;;;;;;;0.77;0.77;;;;;;;;;;7398443;19;20161;-89
2023/05/02 22:17:27;;;;;;;0.43;0.43;;;;;;;;;;7395662;19;20162;-89
2023/05/02 22:19:53;;;;;;;0.83;0.83;;;;;;;;;;7394917;19;20137;-90
2023/05/02 22:22:20;;;;;;;0.30;0.30;;;;;;;;;;7398497;19;20584;-89
2023/05/02 22:24:47;;;;;;;0.60;0.60;;;;;;;;;;7395157;19;20149;-90
2023/05/02 22:27:13;;;;;;;0.30;0.30;;;;;;;;;;7397487;19;20129;-91
2023/05/02 22:29:41;;;;;;;0.50;0.50;;;;;;;;;;7394104;19;20141;-90
2023/05/02 22:32:07;;;;;;;0.40;0.40;;;;;;;;;;7396148;19;20153;-89
2023/05/02 22:34:34;;;;;;;0.40;0.40;;;;;;;;;;7396278;19;20156;-89
2023/05/02 22:37:01;;;;;;;0.83;0.83;;;;;;;;;;7398182;19;20158;-90
2023/05/02 22:39:27;;;;;;;0.70;0.70;;;;;;;;;;7397721;19;20487;-90
2023/05/02 22:41:54;;;;;;;0.63;0.63;;;;;;;;;;7395888;19;20161;-91
2023/05/02 22:44:21;;;;;;;0.47;0.47;;;;;;;;;;7395933;19;20514;-89
2023/05/02 22:46:56;;;;;;;0.67;0.67;;;;;;;;;;7396192;19;20137;-90
2023/05/02 22:50:11;;;;;;;0.77;0.77;;;;;;;;;;7395781;19;20156;-90
2023/05/02 22:52:38;;;;;;;0.30;0.30;;;;;;;;;;7394377;19;20172;-90
2023/05/02 22:55:07;;;;;;;0.40;0.40;;;;;;;;;;7394924;19;20175;-91
2023/05/02 22:57:35;;;;;;;3.30;1.13;;;;;;;;;;7401330;19;20141;-91
2023/05/02 23:00:04;;;;;;;0.53;0.53;;;;;;;;;;7399733;19;20137;-95
